TimePDT,TemperatureF,Dew PointF,Humidity,Sea Level PressureIn,VisibilityMPH,Wind Direction,Wind SpeedMPH,Gust SpeedMPH,PrecipitationIn,Events,Conditions,WindDirDegrees,DateUTC
12:53 AM,55.9,46.9,72,29.93,10.0,NW,12.7,-,0.00,,Overcast,320,2013-05-17 07:53:00
1:53 AM,55.0,46.9,74,29.94,10.0,WNW,11.5,19.6,0.00,Rain,Light Rain,300,2013-05-17 08:53:00
2:53 AM,54.0,48.0,80,29.94,10.0,NW,9.2,-,0.01,Rain,Light Rain,320,2013-05-17 09:53:00
3:53 AM,53.1,48.0,83,29.95,10.0,NW,5.8,-,0.03,Rain,Light Rain,320,2013-05-17 10:53:00
5:53 AM,52.0,46.9,83,29.96,10.0,WNW,11.5,25.3,0.03,Rain,Light Rain,300,2013-05-17 12:53:00
6:53 AM,53.1,46.0,77,29.98,10.0,NW,15.0,-,0.03,Rain,Light Rain,310,2013-05-17 13:53:00
7:53 AM,53.1,45.0,74,29.99,10.0,WNW,10.4,-,0.00,,Overcast,300,2013-05-17 14:53:00
8:53 AM,54.0,45.0,72,29.99,10.0,WNW,11.5,-,N/A,,Overcast,300,2013-05-17 15:53:00
9:53 AM,57.0,45.0,64,29.99,10.0,West,12.7,-,N/A,,Overcast,280,2013-05-17 16:53:00
10:53 AM,59.0,44.1,58,29.98,10.0,NW,16.1,23.0,N/A,,Overcast,310,2013-05-17 17:53:00
12:53 PM,64.0,42.1,45,29.97,10.0,WNW,13.8,-,N/A,,Overcast,300,2013-05-17 19:53:00
1:53 PM,66.0,39.0,37,29.96,10.0,WNW,18.4,25.3,N/A,,Mostly Cloudy,300,2013-05-17 20:53:00
2:53 PM,66.0,39.9,38,29.96,10.0,WNW,23.0,31.1,N/A,,Mostly Cloudy,300,2013-05-17 21:53:00
3:53 PM,68.0,39.9,36,29.94,10.0,WNW,19.6,27.6,N/A,,Clear,300,2013-05-17 22:53:00
4:53 PM,68.0,39.9,36,29.95,10.0,WNW,21.9,27.6,N/A,,Scattered Clouds,290,2013-05-17 23:53:00
5:53 PM,66.0,39.9,38,29.97,10.0,West,18.4,-,N/A,,Clear,270,2013-05-18 00:53:00
6:53 PM,63.0,41.0,45,29.98,10.0,NW,17.3,-,N/A,,Clear,320,2013-05-18 01:53:00
7:53 PM,59.0,42.1,53,30.00,10.0,WNW,10.4,-,N/A,,Clear,290,2013-05-18 02:53:00
8:53 PM,57.0,42.1,57,30.01,10.0,NW,12.7,-,N/A,,Partly Cloudy,320,2013-05-18 03:53:00
9:53 PM,57.0,43.0,59,30.03,10.0,WNW,12.7,-,N/A,,Clear,290,2013-05-18 04:53:00
10:53 PM,57.0,43.0,59,30.04,10.0,West,13.8,23.0,N/A,,Clear,270,2013-05-18 05:53:00
11:53 PM,55.0,43.0,64,30.05,10.0,WSW,8.1,-,N/A,,Partly Cloudy,250,2013-05-18 06:53:00